sensor_id;sensor_type;location;lat;lon;timestamp;pressure;altitude;pressure_sealevel;temperature;humidity
38939;BME280;24211;49.980;19.776;2022-12-16T00:01:25;98723.09;;;0.75;100.00
38939;BME280;24211;49.980;19.776;2022-12-16T00:03:56;98727.63;;;0.81;100.00
38939;BME280;24211;49.980;19.776;2022-12-16T00:06:28;98730.34;;;0.73;100.00
38939;BME280;24211;49.980;19.776;2022-12-16T00:08:56;98726.34;;;0.77;100.00
38939;BME280;24211;49.980;19.776;2022-12-16T00:11:22;98724.06;;;0.74;100.00
38939;BME280;24211;49.980;19.776;2022-12-16T00:13:50;98728.69;;;0.72;100.00
38939;BME280;24211;49.980;19.776;2022-12-16T00:16:19;98735.94;;;0.70;100.00
38939;BME280;24211;49.980;19.776;2022-12-16T00:18:47;98738.88;;;0.75;100.00
38939;BME280;24211;49.980;19.776;2022-12-16T00:21:15;98732.97;;;0.73;100.00
38939;BME280;24211;49.980;19.776;2022-12-16T00:23:45;98756.31;;;0.76;100.00
38939;BME280;24211;49.980;19.776;2022-12-16T00:26:13;98741.84;;;0.72;100.00
38939;BME280;24211;49.980;19.776;2022-12-16T00:28:40;98720.53;;;0.67;100.00
38939;BME280;24211;49.980;19.776;2022-12-16T00:31:09;98710.28;;;0.72;100.00
38939;BME280;24211;49.980;19.776;2022-12-16T00:33:37;98713.75;;;0.73;100.00
38939;BME280;24211;49.980;19.776;2022-12-16T00:36:04;98710.34;;;0.64;100.00
38939;BME280;24211;49.980;19.776;2022-12-16T00:38:32;98708.69;;;0.71;100.00
38939;BME280;24211;49.980;19.776;2022-12-16T00:41:00;98717.78;;;0.83;100.00
38939;BME280;24211;49.980;19.776;2022-12-16T00:43:28;98714.22;;;0.76;100.00
38939;BME280;24211;49.980;19.776;2022-12-16T00:45:55;98712.50;;;0.83;100.00
38939;BME280;24211;49.980;19.776;2022-12-16T00:48:23;98717.59;;;0.85;100.00
38939;BME280;24211;49.980;19.776;2022-12-16T00:50:53;98716.47;;;0.79;100.00
38939;BME280;24211;49.980;19.776;2022-12-16T00:53:24;98714.22;;;0.76;100.00
38939;BME280;24211;49.980;19.776;2022-12-16T00:56:03;98706.34;;;0.76;100.00
38939;BME280;24211;49.980;19.776;2022-12-16T00:58:31;98699.63;;;0.74;100.00
38939;BME280;24211;49.980;19.776;2022-12-16T01:01:00;98702.63;;;0.85;100.00
38939;BME280;24211;49.980;19.776;2022-12-16T01:03:28;98693.53;;;0.73;100.00
38939;BME280;24211;49.980;19.776;2022-12-16T01:05:55;98693.19;;;0.76;100.00
38939;BME280;24211;49.980;19.776;2022-12-16T01:08:22;98692.81;;;0.79;100.00
38939;BME280;24211;49.980;19.776;2022-12-16T01:10:55;98693.38;;;0.89;100.00
38939;BME280;24211;49.980;19.776;2022-12-16T01:13:24;98691.28;;;0.85;100.00
38939;BME280;24211;49.980;19.776;2022-12-16T01:15:52;98680.47;;;0.80;100.00
38939;BME280;24211;49.980;19.776;2022-12-16T01:18:20;98691.81;;;0.80;100.00
38939;BME280;24211;49.980;19.776;2022-12-16T01:20:47;98684.63;;;0.74;100.00
38939;BME280;24211;49.980;19.776;2022-12-16T01:23:14;98663.16;;;0.71;100.00
38939;BME280;24211;49.980;19.776;2022-12-16T01:25:41;98666.59;;;0.71;100.00
38939;BME280;24211;49.980;19.776;2022-12-16T01:28:09;98668.06;;;0.74;100.00
38939;BME280;24211;49.980;19.776;2022-12-16T01:30:36;98669.31;;;0.78;100.00
38939;BME280;24211;49.980;19.776;2022-12-16T01:33:03;98662.81;;;0.74;100.00
38939;BME280;24211;49.980;19.776;2022-12-16T01:35:30;98645.47;;;0.79;100.00
38939;BME280;24211;49.980;19.776;2022-12-16T01:38:17;98645.38;;;0.73;100.00
38939;BME280;24211;49.980;19.776;2022-12-16T01:40:44;98645.47;;;0.79;100.00
38939;BME280;24211;49.980;19.776;2022-12-16T01:43:13;98629.31;;;0.68;100.00
38939;BME280;24211;49.980;19.776;2022-12-16T01:45:41;98619.63;;;0.68;100.00
38939;BME280;24211;49.980;19.776;2022-12-16T01:48:34;98621.63;;;0.66;100.00
38939;BME280;24211;49.980;19.776;2022-12-16T01:51:29;98626.78;;;0.74;100.00
38939;BME280;24211;49.980;19.776;2022-12-16T01:54:17;98618.06;;;0.59;100.00
38939;BME280;24211;49.980;19.776;2022-12-16T01:56:51;98624.25;;;0.66;100.00
38939;BME280;24211;49.980;19.776;2022-12-16T01:59:24;98625.44;;;0.78;100.00
38939;BME280;24211;49.980;19.776;2022-12-16T02:01:53;98614.09;;;0.92;100.00
38939;BME280;24211;49.980;19.776;2022-12-16T02:04:21;98605.31;;;0.85;100.00
38939;BME280;24211;49.980;19.776;2022-12-16T02:06:48;98609.84;;;0.91;100.00
38939;BME280;24211;49.980;19.776;2022-12-16T02:09:16;98604.69;;;0.83;100.00
38939;BME280;24211;49.980;19.776;2022-12-16T02:12:12;98609.03;;;0.76;100.00
38939;BME280;24211;49.980;19.776;2022-12-16T02:15:13;98614.63;;;0.73;100.00
38939;BME280;24211;49.980;19.776;2022-12-16T02:18:17;98609.81;;;0.77;100.00
38939;BME280;24211;49.980;19.776;2022-12-16T02:21:09;98614.28;;;0.76;100.00
38939;BME280;24211;49.980;19.776;2022-12-16T02:32:51;98593.59;;;0.73;100.00
38939;BME280;24211;49.980;19.776;2022-12-16T02:35:51;98600.28;;;0.61;100.00
38939;BME280;24211;49.980;19.776;2022-12-16T02:38:37;98589.97;;;0.74;100.00
38939;BME280;24211;49.980;19.776;2022-12-16T02:41:30;98571.19;;;0.62;100.00
38939;BME280;24211;49.980;19.776;2022-12-16T02:44:05;98566.00;;;0.69;100.00
38939;BME280;24211;49.980;19.776;2022-12-16T02:46:42;98556.31;;;0.70;100.00
38939;BME280;24211;49.980;19.776;2022-12-16T02:51:40;98548.53;;;0.76;100.00
38939;BME280;24211;49.980;19.776;2022-12-16T02:54:10;98546.00;;;0.83;100.00
38939;BME280;24211;49.980;19.776;2022-12-16T02:56:54;98547.53;;;0.77;100.00
38939;BME280;24211;49.980;19.776;2022-12-16T03:00:06;98538.66;;;0.78;100.00
38939;BME280;24211;49.980;19.776;2022-12-16T03:03:07;98539.56;;;0.71;100.00
38939;BME280;24211;49.980;19.776;2022-12-16T03:05:47;98544.28;;;0.75;100.00
38939;BME280;24211;49.980;19.776;2022-12-16T03:08:23;98541.56;;;0.83;100.00
38939;BME280;24211;49.980;19.776;2022-12-16T03:10:59;98538.72;;;0.85;100.00
38939;BME280;24211;49.980;19.776;2022-12-16T03:13:32;98547.53;;;0.77;100.00
38939;BME280;24211;49.980;19.776;2022-12-16T03:16:06;98540.91;;;0.96;100.00
38939;BME280;24211;49.980;19.776;2022-12-16T03:18:39;98536.91;;;1.00;100.00
38939;BME280;24211;49.980;19.776;2022-12-16T03:21:09;98543.63;;;0.88;100.00
38939;BME280;24211;49.980;19.776;2022-12-16T03:23:47;98533.66;;;0.98;100.00
38939;BME280;24211;49.980;19.776;2022-12-16T03:26:25;98534.84;;;0.95;100.00
38939;BME280;24211;49.980;19.776;2022-12-16T03:29:21;98508.72;;;0.79;100.00
38939;BME280;24211;49.980;19.776;2022-12-16T03:31:54;98507.81;;;0.72;100.00
38939;BME280;24211;49.980;19.776;2022-12-16T03:37:09;98491.75;;;0.67;100.00
38939;BME280;24211;49.980;19.776;2022-12-16T03:39:45;98488.78;;;0.70;100.00
38939;BME280;24211;49.980;19.776;2022-12-16T03:42:14;98474.66;;;0.71;100.00
38939;BME280;24211;49.980;19.776;2022-12-16T03:44:44;98478.63;;;0.67;100.00
38939;BME280;24211;49.980;19.776;2022-12-16T03:47:12;98472.00;;;0.71;100.00
38939;BME280;24211;49.980;19.776;2022-12-16T03:49:47;98469.00;;;0.74;100.00
38939;BME280;24211;49.980;19.776;2022-12-16T03:52:14;98451.59;;;0.73;100.00
38939;BME280;24211;49.980;19.776;2022-12-16T03:54:41;98450.72;;;0.66;100.00
38939;BME280;24211;49.980;19.776;2022-12-16T03:57:08;98449.06;;;0.65;100.00
38939;BME280;24211;49.980;19.776;2022-12-16T03:59:41;98442.09;;;0.57;100.00
38939;BME280;24211;49.980;19.776;2022-12-16T04:02:09;98440.28;;;0.58;100.00
38939;BME280;24211;49.980;19.776;2022-12-16T04:04:36;98443.81;;;0.65;100.00
38939;BME280;24211;49.980;19.776;2022-12-16T04:07:04;98435.91;;;0.80;100.00
38939;BME280;24211;49.980;19.776;2022-12-16T04:09:51;98428.63;;;0.82;100.00
38939;BME280;24211;49.980;19.776;2022-12-16T04:12:19;98415.31;;;0.83;100.00
38939;BME280;24211;49.980;19.776;2022-12-16T04:15:07;98400.72;;;0.81;100.00
38939;BME280;24211;49.980;19.776;2022-12-16T04:18:14;98411.34;;;0.73;100.00
38939;BME280;24211;49.980;19.776;2022-12-16T04:21:02;98411.41;;;0.79;100.00
38939;BME280;24211;49.980;19.776;2022-12-16T04:23:54;98401.28;;;0.76;100.00
38939;BME280;24211;49.980;19.776;2022-12-16T04:26:49;98407.16;;;0.78;100.00
38939;BME280;24211;49.980;19.776;2022-12-16T04:29:42;98423.84;;;0.85;100.00
38939;BME280;24211;49.980;19.776;2022-12-16T04:32:30;98419.72;;;0.97;100.00
38939;BME280;24211;49.980;19.776;2022-12-16T04:35:16;98415.84;;;0.93;100.00
38939;BME280;24211;49.980;19.776;2022-12-16T04:38:02;98419.09;;;0.95;100.00
38939;BME280;24211;49.980;19.776;2022-12-16T04:40:48;98420.47;;;0.77;100.00
38939;BME280;24211;49.980;19.776;2022-12-16T04:43:34;98422.66;;;0.88;100.00
38939;BME280;24211;49.980;19.776;2022-12-16T04:46:20;98416.94;;;0.84;100.00
38939;BME280;24211;49.980;19.776;2022-12-16T04:49:06;98412.50;;;0.85;100.00
38939;BME280;24211;49.980;19.776;2022-12-16T04:51:52;98416.75;;;0.86;100.00
38939;BME280;24211;49.980;19.776;2022-12-16T04:54:38;98426.63;;;0.84;100.00
38939;BME280;24211;49.980;19.776;2022-12-16T04:57:24;98429.44;;;0.82;100.00
38939;BME280;24211;49.980;19.776;2022-12-16T05:00:11;98423.06;;;0.91;100.00
38939;BME280;24211;49.980;19.776;2022-12-16T05:02:57;98420.56;;;0.83;100.00
38939;BME280;24211;49.980;19.776;2022-12-16T05:05:42;98412.03;;;0.81;100.00
38939;BME280;24211;49.980;19.776;2022-12-16T05:08:29;98407.44;;;0.83;100.00
38939;BME280;24211;49.980;19.776;2022-12-16T05:11:15;98403.91;;;0.76;100.00
38939;BME280;24211;49.980;19.776;2022-12-16T05:14:01;98391.09;;;0.88;100.00
38939;BME280;24211;49.980;19.776;2022-12-16T05:16:47;98389.00;;;0.83;100.00
38939;BME280;24211;49.980;19.776;2022-12-16T05:19:33;98380.94;;;0.85;100.00
38939;BME280;24211;49.980;19.776;2022-12-16T05:22:19;98372.34;;;0.76;100.00
38939;BME280;24211;49.980;19.776;2022-12-16T05:25:06;98376.44;;;0.79;100.00
38939;BME280;24211;49.980;19.776;2022-12-16T05:27:52;98368.34;;;0.80;100.00
38939;BME280;24211;49.980;19.776;2022-12-16T05:30:39;98362.31;;;0.86;100.00
38939;BME280;24211;49.980;19.776;2022-12-16T05:33:25;98355.38;;;0.79;100.00
38939;BME280;24211;49.980;19.776;2022-12-16T05:36:11;98359.06;;;0.84;100.00
38939;BME280;24211;49.980;19.776;2022-12-16T05:38:57;98360.72;;;0.85;100.00
38939;BME280;24211;49.980;19.776;2022-12-16T05:41:43;98372.47;;;0.89;100.00
38939;BME280;24211;49.980;19.776;2022-12-16T05:44:29;98389.44;;;0.87;100.00
38939;BME280;24211;49.980;19.776;2022-12-16T05:47:15;98402.56;;;1.01;100.00
38939;BME280;24211;49.980;19.776;2022-12-16T05:50:01;98400.47;;;0.97;100.00
38939;BME280;24211;49.980;19.776;2022-12-16T05:52:53;98396.25;;;0.81;100.00
38939;BME280;24211;49.980;19.776;2022-12-16T05:55:41;98403.16;;;0.82;100.00
38939;BME280;24211;49.980;19.776;2022-12-16T05:58:28;98404.56;;;0.99;100.00
38939;BME280;24211;49.980;19.776;2022-12-16T06:01:14;98401.50;;;0.96;100.00
38939;BME280;24211;49.980;19.776;2022-12-16T06:04:00;98398.88;;;0.96;100.00
38939;BME280;24211;49.980;19.776;2022-12-16T06:06:46;98387.00;;;0.85;100.00
38939;BME280;24211;49.980;19.776;2022-12-16T06:09:32;98384.03;;;0.88;100.00
38939;BME280;24211;49.980;19.776;2022-12-16T06:12:23;98382.63;;;0.92;100.00
38939;BME280;24211;49.980;19.776;2022-12-16T06:15:09;98369.22;;;0.87;100.00
38939;BME280;24211;49.980;19.776;2022-12-16T06:17:55;98369.94;;;0.81;100.00
38939;BME280;24211;49.980;19.776;2022-12-16T06:20:42;98365.34;;;0.83;100.00
38939;BME280;24211;49.980;19.776;2022-12-16T06:23:27;98359.06;;;0.84;100.00
38939;BME280;24211;49.980;19.776;2022-12-16T06:26:13;98356.28;;;0.86;100.00
38939;BME280;24211;49.980;19.776;2022-12-16T06:29:00;98367.84;;;0.91;100.00
38939;BME280;24211;49.980;19.776;2022-12-16T06:31:46;98367.47;;;0.94;100.00
38939;BME280;24211;49.980;19.776;2022-12-16T06:34:32;98368.75;;;0.98;100.00
38939;BME280;24211;49.980;19.776;2022-12-16T06:37:18;98373.00;;;0.99;100.00
38939;BME280;24211;49.980;19.776;2022-12-16T06:40:04;98368.50;;;0.93;100.00
38939;BME280;24211;49.980;19.776;2022-12-16T06:42:50;98366.03;;;0.92;100.00
38939;BME280;24211;49.980;19.776;2022-12-16T06:45:36;98369.75;;;0.97;100.00
38939;BME280;24211;49.980;19.776;2022-12-16T06:48:21;98364.53;;;1.04;100.00
38939;BME280;24211;49.980;19.776;2022-12-16T06:51:07;98363.34;;;1.06;100.00
38939;BME280;24211;49.980;19.776;2022-12-16T06:53:54;98355.81;;;1.03;100.00
38939;BME280;24211;49.980;19.776;2022-12-16T06:56:39;98353.94;;;0.97;100.00
38939;BME280;24211;49.980;19.776;2022-12-16T06:59:25;98339.72;;;0.92;100.00
38939;BME280;24211;49.980;19.776;2022-12-16T07:02:11;98348.31;;;1.00;100.00
38939;BME280;24211;49.980;19.776;2022-12-16T07:04:57;98335.78;;;1.02;100.00
38939;BME280;24211;49.980;19.776;2022-12-16T07:07:48;98340.03;;;1.03;100.00
38939;BME280;24211;49.980;19.776;2022-12-16T07:10:36;98336.16;;;0.99;100.00
38939;BME280;24211;49.980;19.776;2022-12-16T07:13:29;98345.06;;;0.98;100.00
38939;BME280;24211;49.980;19.776;2022-12-16T07:16:15;98345.06;;;0.98;100.00
38939;BME280;24211;49.980;19.776;2022-12-16T07:19:02;98344.19;;;1.12;100.00
38939;BME280;24211;49.980;19.776;2022-12-16T07:21:48;98344.31;;;1.04;100.00
38939;BME280;24211;49.980;19.776;2022-12-16T07:24:34;98345.28;;;1.03;100.00
38939;BME280;24211;49.980;19.776;2022-12-16T07:27:20;98343.06;;;1.00;100.00
38939;BME280;24211;49.980;19.776;2022-12-16T07:30:07;98343.31;;;1.05;100.00
38939;BME280;24211;49.980;19.776;2022-12-16T07:32:53;98352.13;;;1.19;100.00
38939;BME280;24211;49.980;19.776;2022-12-16T07:35:42;98345.44;;;1.16;100.00
38939;BME280;24211;49.980;19.776;2022-12-16T07:38:28;98345.53;;;1.08;100.00
38939;BME280;24211;49.980;19.776;2022-12-16T07:41:14;98337.84;;;1.07;100.00
38939;BME280;24211;49.980;19.776;2022-12-16T07:44:03;98338.06;;;1.05;100.00
38939;BME280;24211;49.980;19.776;2022-12-16T07:46:49;98342.78;;;1.16;100.00
38939;BME280;24211;49.980;19.776;2022-12-16T07:49:34;98339.81;;;1.19;100.00
38939;BME280;24211;49.980;19.776;2022-12-16T07:52:22;98339.59;;;1.21;100.00
38939;BME280;24211;49.980;19.776;2022-12-16T07:55:08;98331.91;;;1.19;100.00
38939;BME280;24211;49.980;19.776;2022-12-16T07:57:53;98331.84;;;1.13;100.00
38939;BME280;24211;49.980;19.776;2022-12-16T08:00:39;98329.03;;;1.14;100.00
38939;BME280;24211;49.980;19.776;2022-12-16T08:03:26;98325.78;;;1.12;100.00
38939;BME280;24211;49.980;19.776;2022-12-16T08:06:12;98332.66;;;1.13;100.00
38939;BME280;24211;49.980;19.776;2022-12-16T08:09:05;98327.38;;;1.13;100.00
38939;BME280;24211;49.980;19.776;2022-12-16T08:11:51;98328.16;;;1.07;100.00
38939;BME280;24211;49.980;19.776;2022-12-16T08:14:37;98318.88;;;1.11;100.00
38939;BME280;24211;49.980;19.776;2022-12-16T08:17:23;98321.75;;;1.16;100.00
38939;BME280;24211;49.980;19.776;2022-12-16T08:20:09;98334.78;;;1.03;100.00
38939;BME280;24211;49.980;19.776;2022-12-16T08:22:55;98326.50;;;1.06;100.00
38939;BME280;24211;49.980;19.776;2022-12-16T08:25:41;98333.03;;;1.10;100.00
38939;BME280;24211;49.980;19.776;2022-12-16T08:28:29;98338.31;;;1.10;100.00
38939;BME280;24211;49.980;19.776;2022-12-16T08:31:15;98329.34;;;1.05;100.00
38939;BME280;24211;49.980;19.776;2022-12-16T08:34:01;98337.13;;;1.13;100.00
38939;BME280;24211;49.980;19.776;2022-12-16T08:36:47;98333.16;;;1.23;100.00
38939;BME280;24211;49.980;19.776;2022-12-16T08:39:32;98339.03;;;1.25;100.00
38939;BME280;24211;49.980;19.776;2022-12-16T08:42:38;98332.28;;;1.16;100.00
38939;BME280;24211;49.980;19.776;2022-12-16T08:45:25;98324.00;;;1.19;100.00
38939;BME280;24211;49.980;19.776;2022-12-16T08:48:11;98330.25;;;1.18;100.00
38939;BME280;24211;49.980;19.776;2022-12-16T08:51:02;98339.59;;;1.21;100.00
38939;BME280;24211;49.980;19.776;2022-12-16T08:53:48;98338.78;;;1.20;100.00
38939;BME280;24211;49.980;19.776;2022-12-16T08:56:35;98330.75;;;1.28;100.00
38939;BME280;24211;49.980;19.776;2022-12-16T08:59:21;98339.09;;;1.32;100.00
38939;BME280;24211;49.980;19.776;2022-12-16T09:02:10;98343.28;;;1.26;100.00
38939;BME280;24211;49.980;19.776;2022-12-16T09:04:57;98342.56;;;1.33;100.00
38939;BME280;24211;49.980;19.776;2022-12-16T09:07:50;98354.06;;;1.31;100.00
38939;BME280;24211;49.980;19.776;2022-12-16T09:10:36;98345.44;;;1.38;100.00
38939;BME280;24211;49.980;19.776;2022-12-16T09:13:22;98347.41;;;1.36;100.00
38939;BME280;24211;49.980;19.776;2022-12-16T09:16:08;98347.03;;;1.39;100.00
38939;BME280;24211;49.980;19.776;2022-12-16T09:18:54;98354.81;;;1.47;100.00
38939;BME280;24211;49.980;19.776;2022-12-16T09:21:40;98357.19;;;1.42;100.00
38939;BME280;24211;49.980;19.776;2022-12-16T09:24:26;98356.44;;;1.48;100.00
38939;BME280;24211;49.980;19.776;2022-12-16T09:27:12;98358.06;;;1.49;100.00
38939;BME280;24211;49.980;19.776;2022-12-16T09:29:58;98350.03;;;1.57;100.00
38939;BME280;24211;49.980;19.776;2022-12-16T09:32:44;98353.66;;;1.56;100.00
38939;BME280;24211;49.980;19.776;2022-12-16T09:35:31;98359.16;;;1.61;100.00
38939;BME280;24211;49.980;19.776;2022-12-16T09:38:16;98357.78;;;1.65;100.00
38939;BME280;24211;49.980;19.776;2022-12-16T09:44:26;98366.94;;;1.69;100.00
38939;BME280;24211;49.980;19.776;2022-12-16T09:47:43;98374.47;;;1.72;100.00
38939;BME280;24211;49.980;19.776;2022-12-16T09:50:39;98367.19;;;1.74;100.00
38939;BME280;24211;49.980;19.776;2022-12-16T09:53:30;98377.72;;;1.74;100.00
38939;BME280;24211;49.980;19.776;2022-12-16T09:56:30;98374.06;;;1.75;100.00
38939;BME280;24211;49.980;19.776;2022-12-16T09:59:36;98361.91;;;1.74;100.00
38939;BME280;24211;49.980;19.776;2022-12-16T10:02:24;98362.31;;;1.77;100.00
38939;BME280;24211;49.980;19.776;2022-12-16T10:05:14;98372.06;;;1.77;100.00
38939;BME280;24211;49.980;19.776;2022-12-16T10:08:18;98359.69;;;1.77;100.00
38939;BME280;24211;49.980;19.776;2022-12-16T10:11:21;98365.78;;;1.78;100.00
38939;BME280;24211;49.980;19.776;2022-12-16T10:14:22;98370.06;;;1.79;100.00
38939;BME280;24211;49.980;19.776;2022-12-16T10:17:15;98375.31;;;1.79;100.00
38939;BME280;24211;49.980;19.776;2022-12-16T10:23:29;98376.94;;;1.80;100.00
38939;BME280;24211;49.980;19.776;2022-12-16T10:29:24;98368.22;;;1.79;100.00
38939;BME280;24211;49.980;19.776;2022-12-16T10:32:37;98372.69;;;1.79;100.00
38939;BME280;24211;49.980;19.776;2022-12-16T10:38:41;98389.50;;;1.78;100.00
38939;BME280;24211;49.980;19.776;2022-12-16T10:41:36;98392.31;;;1.76;100.00
38939;BME280;24211;49.980;19.776;2022-12-16T10:44:49;98398.41;;;1.77;100.00
38939;BME280;24211;49.980;19.776;2022-12-16T10:47:38;98393.16;;;1.77;100.00
38939;BME280;24211;49.980;19.776;2022-12-16T10:50:24;98389.50;;;1.78;100.00
38939;BME280;24211;49.980;19.776;2022-12-16T10:53:34;98392.13;;;1.78;100.00
38939;BME280;24211;49.980;19.776;2022-12-16T10:56:57;98392.38;;;1.83;100.00
38939;BME280;24211;49.980;19.776;2022-12-16T10:59:45;98368.03;;;1.81;100.00
38939;BME280;24211;49.980;19.776;2022-12-16T11:02:31;98380.19;;;1.82;100.00
38939;BME280;24211;49.980;19.776;2022-12-16T11:08:32;98395.00;;;1.83;100.00
38939;BME280;24211;49.980;19.776;2022-12-16T11:11:28;98392.00;;;1.86;100.00
38939;BME280;24211;49.980;19.776;2022-12-16T11:14:31;98399.88;;;1.86;100.00
38939;BME280;24211;49.980;19.776;2022-12-16T11:17:37;98394.78;;;1.84;100.00
38939;BME280;24211;49.980;19.776;2022-12-16T11:20:25;98400.25;;;1.83;100.00
38939;BME280;24211;49.980;19.776;2022-12-16T11:23:25;98404.91;;;1.81;100.00
38939;BME280;24211;49.980;19.776;2022-12-16T11:26:21;98414.63;;;1.80;100.00
38939;BME280;24211;49.980;19.776;2022-12-16T11:29:10;98420.34;;;1.84;100.00
38939;BME280;24211;49.980;19.776;2022-12-16T11:40:15;98419.16;;;1.86;100.00
38939;BME280;24211;49.980;19.776;2022-12-16T11:43:05;98414.69;;;1.87;100.00
38939;BME280;24211;49.980;19.776;2022-12-16T11:46:23;98425.22;;;1.87;100.00
38939;BME280;24211;49.980;19.776;2022-12-16T11:49:31;98419.31;;;1.85;100.00
38939;BME280;24211;49.980;19.776;2022-12-16T11:52:22;98423.59;;;1.86;100.00
38939;BME280;24211;49.980;19.776;2022-12-16T11:55:27;98430.47;;;1.87;100.00
38939;BME280;24211;49.980;19.776;2022-12-16T11:58:47;98430.09;;;1.90;100.00
38939;BME280;24211;49.980;19.776;2022-12-16T12:03:45;98437.00;;;1.91;100.00
38939;BME280;24211;49.980;19.776;2022-12-16T12:07:33;98435.38;;;1.90;100.00
38939;BME280;24211;49.980;19.776;2022-12-16T12:30:33;98460.97;;;1.96;100.00
38939;BME280;24211;49.980;19.776;2022-12-16T13:00:59;98478.41;;;1.97;100.00
38939;BME280;24211;49.980;19.776;2022-12-16T13:04:40;98483.63;;;1.90;100.00
38939;BME280;24211;49.980;19.776;2022-12-16T13:12:37;98510.78;;;1.91;100.00
38939;BME280;24211;49.980;19.776;2022-12-16T13:15:36;98519.31;;;1.93;100.00
38939;BME280;24211;49.980;19.776;2022-12-16T13:18:30;98529.84;;;1.93;100.00
38939;BME280;24211;49.980;19.776;2022-12-16T13:27:14;98530.47;;;1.95;100.00
38939;BME280;24211;49.980;19.776;2022-12-16T13:33:31;98552.56;;;1.94;100.00
38939;BME280;24211;49.980;19.776;2022-12-16T13:36:18;98556.41;;;1.91;100.00
38939;BME280;24211;49.980;19.776;2022-12-16T13:39:27;98569.00;;;1.96;100.00
38939;BME280;24211;49.980;19.776;2022-12-16T13:42:49;98566.53;;;1.94;100.00
38939;BME280;24211;49.980;19.776;2022-12-16T13:48:49;98577.28;;;1.93;100.00
38939;BME280;24211;49.980;19.776;2022-12-16T13:57:23;98569.13;;;1.88;100.00
38939;BME280;24211;49.980;19.776;2022-12-16T14:00:21;98567.09;;;1.90;100.00
38939;BME280;24211;49.980;19.776;2022-12-16T14:03:48;98567.09;;;1.90;100.00
38939;BME280;24211;49.980;19.776;2022-12-16T14:06:37;98568.53;;;1.92;100.00
38939;BME280;24211;49.980;19.776;2022-12-16T14:09:38;98568.38;;;1.94;100.00
38939;BME280;24211;49.980;19.776;2022-12-16T14:12:41;98576.91;;;1.96;100.00
38939;BME280;24211;49.980;19.776;2022-12-16T14:15:50;98584.81;;;1.96;100.00
38939;BME280;24211;49.980;19.776;2022-12-16T14:19:22;98591.69;;;1.97;100.00
38939;BME280;24211;49.980;19.776;2022-12-16T14:25:57;98606.50;;;1.98;100.00
38939;BME280;24211;49.980;19.776;2022-12-16T14:28:46;98609.16;;;1.98;100.00
38939;BME280;24211;49.980;19.776;2022-12-16T14:31:39;98626.97;;;1.96;100.00
38939;BME280;24211;49.980;19.776;2022-12-16T14:34:34;98628.59;;;1.97;100.00
38939;BME280;24211;49.980;19.776;2022-12-16T14:37:36;98626.34;;;1.94;100.00
38939;BME280;24211;49.980;19.776;2022-12-16T14:40:31;98641.13;;;1.95;100.00
38939;BME280;24211;49.980;19.776;2022-12-16T14:43:20;98636.50;;;1.97;100.00
38939;BME280;24211;49.980;19.776;2022-12-16T14:49:28;98642.78;;;1.96;100.00
38939;BME280;24211;49.980;19.776;2022-12-16T14:52:25;98659.41;;;1.96;100.00
38939;BME280;24211;49.980;19.776;2022-12-16T14:55:17;98656.78;;;1.96;100.00
38939;BME280;24211;49.980;19.776;2022-12-16T14:58:11;98656.78;;;1.96;100.00
38939;BME280;24211;49.980;19.776;2022-12-16T15:01:03;98661.22;;;1.96;100.00
38939;BME280;24211;49.980;19.776;2022-12-16T15:03:50;98661.22;;;1.96;100.00
38939;BME280;24211;49.980;19.776;2022-12-16T15:06:41;98658.75;;;1.94;100.00
38939;BME280;24211;49.980;19.776;2022-12-16T15:09:45;98673.78;;;1.94;100.00
38939;BME280;24211;49.980;19.776;2022-12-16T15:12:39;98666.50;;;1.96;100.00
38939;BME280;24211;49.980;19.776;2022-12-16T15:15:36;98674.41;;;1.96;100.00
38939;BME280;24211;49.980;19.776;2022-12-16T15:18:39;98673.84;;;2.01;100.00
38939;BME280;24211;49.980;19.776;2022-12-16T15:21:27;98672.03;;;2.01;100.00
38939;BME280;24211;49.980;19.776;2022-12-16T15:24:19;98678.47;;;1.98;100.00
38939;BME280;24211;49.980;19.776;2022-12-16T15:36:30;98702.56;;;1.95;100.00
38939;BME280;24211;49.980;19.776;2022-12-16T15:39:26;98711.47;;;1.94;100.00
38939;BME280;24211;49.980;19.776;2022-12-16T15:42:23;98728.09;;;1.95;100.00
38939;BME280;24211;49.980;19.776;2022-12-16T15:45:28;98719.19;;;1.96;100.00
38939;BME280;24211;49.980;19.776;2022-12-16T15:48:30;98728.72;;;1.97;100.00
38939;BME280;24211;49.980;19.776;2022-12-16T15:51:51;98745.91;;;1.93;100.00
38939;BME280;24211;49.980;19.776;2022-12-16T15:54:52;98744.25;;;1.92;100.00
38939;BME280;24211;49.980;19.776;2022-12-16T15:57:38;98746.91;;;1.92;100.00
38939;BME280;24211;49.980;19.776;2022-12-16T16:00:28;98751.19;;;1.93;100.00
38939;BME280;24211;49.980;19.776;2022-12-16T16:03:29;98751.19;;;1.93;100.00
38939;BME280;24211;49.980;19.776;2022-12-16T16:06:24;98744.25;;;1.92;100.00
38939;BME280;24211;49.980;19.776;2022-12-16T16:09:26;98744.66;;;1.89;100.00
38939;BME280;24211;49.980;19.776;2022-12-16T16:12:16;98760.47;;;1.89;100.00
38939;BME280;24211;49.980;19.776;2022-12-16T16:15:04;98762.91;;;1.90;100.00
38939;BME280;24211;49.980;19.776;2022-12-16T16:18:00;98770.59;;;1.92;100.00
38939;BME280;24211;49.980;19.776;2022-12-16T16:20:48;98773.91;;;1.94;100.00
38939;BME280;24211;49.980;19.776;2022-12-16T16:23:35;98777.16;;;1.96;100.00
38939;BME280;24211;49.980;19.776;2022-12-16T16:26:25;98780.78;;;1.95;100.00
38939;BME280;24211;49.980;19.776;2022-12-16T16:29:12;98777.16;;;1.96;100.00
38939;BME280;24211;49.980;19.776;2022-12-16T16:32:00;98794.59;;;1.97;100.00
38939;BME280;24211;49.980;19.776;2022-12-16T16:34:46;98812.41;;;1.95;100.00
38939;BME280;24211;49.980;19.776;2022-12-16T16:37:32;98812.41;;;1.95;100.00
38939;BME280;24211;49.980;19.776;2022-12-16T16:40:36;98817.31;;;1.98;100.00